createdAt,value
2023-04-15T00:02:20.712Z,15.70
2023-04-15T00:04:50.336Z,15.64
2023-04-15T00:07:19.326Z,15.94
2023-04-15T00:09:48.361Z,16.22
2023-04-15T00:12:17.307Z,16.16
2023-04-15T00:14:46.379Z,16.10
2023-04-15T00:17:18.077Z,15.79
2023-04-15T00:19:47.369Z,16.10
2023-04-15T00:22:21.958Z,16.47
2023-04-15T00:24:51.148Z,16.40
2023-04-15T00:27:20.559Z,16.46
2023-04-15T00:29:49.629Z,16.65
2023-04-15T00:32:18.756Z,16.01
2023-04-15T00:34:48.665Z,16.39
2023-04-15T00:37:17.809Z,16.64
2023-04-15T00:39:53.178Z,17.00
2023-04-15T00:42:26.740Z,17.24
2023-04-15T00:44:57.419Z,17.08
2023-04-15T00:47:28.007Z,17.39
2023-04-15T00:50:02.225Z,17.27
2023-04-15T00:52:31.711Z,18.12
2023-04-15T00:55:01.606Z,17.69
2023-04-15T00:57:35.035Z,17.14
2023-04-15T01:00:05.615Z,17.04
2023-04-15T01:02:37.272Z,18.07
2023-04-15T01:05:06.895Z,17.34
2023-04-15T01:07:36.263Z,17.72
2023-04-15T01:10:06.078Z,17.14
2023-04-15T01:12:36.156Z,16.84
2023-04-15T01:15:06.624Z,16.86
2023-04-15T01:17:37.250Z,16.78
2023-04-15T01:20:16.837Z,16.46
2023-04-15T01:23:19.127Z,16.07
2023-04-15T01:25:51.121Z,15.85
2023-04-15T01:28:21.390Z,16.05
2023-04-15T01:30:50.786Z,15.49
2023-04-15T01:33:22.176Z,15.51
2023-04-15T01:36:10.904Z,15.37
2023-04-15T01:38:40.256Z,14.92
2023-04-15T01:41:09.054Z,14.79
2023-04-15T01:43:39.680Z,14.46
2023-04-15T01:46:27.146Z,14.90
2023-04-15T01:48:58.703Z,14.70
2023-04-15T01:51:29.584Z,14.60
2023-04-15T01:54:00.182Z,14.82
2023-04-15T01:56:30.692Z,15.03
2023-04-15T01:59:01.856Z,15.06
2023-04-15T02:01:32.904Z,15.09
2023-04-15T02:04:03.554Z,14.89
2023-04-15T02:06:35.006Z,15.20
2023-04-15T02:09:05.330Z,15.36
2023-04-15T02:11:36.916Z,15.42
2023-04-15T02:14:07.687Z,15.32
2023-04-15T02:16:38.098Z,15.18
2023-04-15T02:19:09.876Z,15.07
2023-04-15T02:21:43.770Z,14.99
2023-04-15T02:24:14.092Z,14.77
2023-04-15T02:26:44.690Z,14.49
2023-04-15T02:29:14.975Z,14.28
2023-04-15T02:31:46.065Z,14.12
2023-04-15T02:34:16.706Z,13.92
2023-04-15T02:36:49.611Z,13.68
2023-04-15T02:39:20.943Z,13.46
2023-04-15T02:41:54.470Z,13.24
2023-04-15T02:44:25.756Z,13.04
2023-04-15T02:47:00.970Z,12.88
2023-04-15T02:49:31.929Z,12.73
2023-04-15T02:52:02.495Z,12.54
2023-04-15T02:54:34.784Z,12.38
2023-04-15T02:57:07.636Z,12.23
2023-04-15T02:59:38.470Z,12.12
2023-04-15T03:02:09.423Z,11.97
2023-04-15T03:04:40.676Z,11.84
2023-04-15T03:07:10.965Z,11.74
2023-04-15T03:09:42.122Z,11.66
2023-04-15T03:12:12.715Z,11.59
2023-04-15T03:14:43.092Z,11.47
2023-04-15T03:17:16.780Z,11.40
2023-04-15T03:19:48.331Z,11.29
2023-04-15T03:22:19.079Z,11.18
2023-04-15T03:24:49.799Z,11.13
2023-04-15T03:27:20.512Z,11.06
2023-04-15T03:29:51.219Z,10.95
2023-04-15T03:32:22.518Z,10.96
2023-04-15T03:37:49.987Z,10.83
2023-04-15T03:40:24.766Z,10.79
2023-04-15T03:46:18.990Z,10.79
2023-04-15T03:52:12.537Z,10.65
2023-04-15T03:54:53.959Z,10.60
2023-04-15T03:57:27.722Z,10.51
2023-04-15T04:00:08.211Z,10.57
2023-04-15T04:02:42.404Z,10.48
2023-04-15T04:05:12.873Z,10.42
2023-04-15T04:07:45.528Z,10.38
2023-04-15T04:10:39.094Z,10.35
2023-04-15T04:13:12.626Z,10.26
2023-04-15T04:15:49.079Z,10.16
2023-04-15T04:18:33.377Z,10.14
2023-04-15T04:21:06.743Z,10.13
2023-04-15T04:23:37.461Z,10.09
2023-04-15T04:26:10.618Z,9.98
2023-04-15T04:28:43.997Z,9.92
2023-04-15T04:31:14.479Z,9.86
2023-04-15T04:33:44.720Z,9.81
2023-04-15T04:36:15.151Z,9.82
2023-04-15T04:38:45.647Z,9.83
2023-04-15T04:41:16.067Z,9.75
2023-04-15T04:43:46.500Z,9.70
2023-04-15T04:46:17.407Z,9.73
2023-04-15T04:48:49.400Z,9.68
2023-04-15T04:51:20.009Z,9.63
2023-04-15T04:53:50.506Z,9.57
2023-04-15T04:56:21.004Z,9.50
2023-04-15T04:58:52.255Z,9.53
2023-04-15T05:01:22.721Z,9.45
2023-04-15T05:03:53.199Z,9.50
2023-04-15T05:06:23.562Z,9.47
2023-04-15T05:08:53.959Z,9.36
2023-04-15T05:11:24.351Z,9.31
2023-04-15T05:13:54.795Z,9.25
2023-04-15T05:16:26.782Z,9.23
2023-04-15T05:18:57.611Z,9.18
2023-04-15T05:21:28.614Z,9.13
2023-04-15T05:23:59.040Z,9.02
2023-04-15T05:26:32.378Z,8.93
2023-04-15T05:29:04.319Z,8.90
2023-04-15T05:31:35.071Z,8.93
2023-04-15T05:34:06.377Z,8.79
2023-04-15T05:36:36.973Z,8.71
2023-04-15T05:39:07.988Z,8.74
2023-04-15T05:41:38.910Z,8.54
2023-04-15T05:44:09.244Z,8.54
2023-04-15T05:46:42.912Z,8.45
2023-04-15T05:49:13.433Z,8.71
2023-04-15T05:51:43.599Z,8.73
2023-04-15T05:54:13.932Z,8.75
2023-04-15T05:56:44.204Z,8.67
2023-04-15T05:59:14.786Z,8.67
2023-04-15T06:01:45.931Z,8.63
2023-04-15T06:04:16.366Z,8.62
2023-04-15T06:06:47.198Z,8.65
2023-04-15T06:09:17.766Z,8.54
2023-04-15T06:11:48.204Z,8.41
2023-04-15T06:14:18.602Z,8.29
2023-04-15T06:16:48.969Z,8.38
2023-04-15T06:19:20.218Z,8.14
2023-04-15T06:21:53.513Z,8.35
2023-04-15T06:24:23.920Z,8.28
2023-04-15T06:26:54.404Z,8.23
2023-04-15T06:29:24.759Z,8.41
2023-04-15T06:31:55.177Z,8.48
2023-04-15T06:34:25.464Z,8.41
2023-04-15T06:36:55.968Z,8.18
2023-04-15T06:39:26.542Z,8.37
2023-04-15T06:41:57.681Z,8.45
2023-04-15T06:44:28.050Z,8.47
2023-04-15T06:47:07.416Z,8.40
2023-04-15T06:50:05.424Z,8.39
2023-04-15T06:52:36.802Z,8.41
2023-04-15T06:55:13.559Z,8.19
2023-04-15T06:57:49.184Z,8.12
2023-04-15T07:00:22.172Z,8.18
2023-04-15T07:02:53.055Z,8.26
2023-04-15T07:05:26.289Z,8.29
2023-04-15T07:08:05.104Z,8.40
2023-04-15T07:10:41.070Z,8.37
2023-04-15T07:13:16.813Z,8.31
2023-04-15T07:15:47.322Z,8.31
2023-04-15T07:18:17.703Z,8.37
2023-04-15T07:20:51.070Z,8.43
2023-04-15T07:23:27.210Z,8.23
2023-04-15T07:25:58.265Z,8.20
2023-04-15T07:28:28.998Z,8.38
2023-04-15T07:31:00.409Z,8.22
2023-04-15T07:33:30.818Z,8.20
2023-04-15T07:36:01.113Z,8.10
2023-04-15T07:38:31.747Z,7.84
2023-04-15T07:41:02.235Z,8.09
2023-04-15T07:43:35.308Z,8.17
2023-04-15T07:46:06.962Z,8.07
2023-04-15T07:48:37.816Z,8.00
2023-04-15T07:51:08.816Z,7.94
2023-04-15T07:53:39.501Z,7.95
2023-04-15T07:56:09.772Z,8.03
2023-04-15T07:58:40.082Z,7.97
2023-04-15T08:01:10.291Z,7.91
2023-04-15T08:03:40.998Z,7.85
2023-04-15T08:06:11.370Z,7.82
2023-04-15T08:08:42.531Z,7.98
2023-04-15T08:11:12.984Z,7.94
2023-04-15T08:13:43.183Z,7.80
2023-04-15T08:16:28.679Z,7.84
2023-04-15T08:18:59.747Z,7.88
2023-04-15T08:21:31.774Z,7.84
2023-04-15T08:24:02.508Z,7.80
2023-04-15T08:26:33.617Z,7.78
2023-04-15T08:29:06.712Z,7.73
2023-04-15T08:31:37.073Z,7.76
2023-04-15T08:34:07.696Z,7.72
2023-04-15T08:36:38.056Z,7.72
2023-04-15T08:39:09.503Z,7.73
2023-04-15T08:41:49.147Z,7.64
2023-04-15T08:44:21.016Z,7.69
2023-04-15T08:46:53.317Z,7.70
2023-04-15T08:49:45.776Z,7.66
2023-04-15T08:52:20.870Z,7.56
2023-04-15T08:54:51.543Z,7.38
2023-04-15T08:57:22.597Z,7.06
2023-04-15T08:59:54.138Z,7.14
2023-04-15T09:02:26.636Z,6.83
2023-04-15T09:05:00.427Z,7.10
2023-04-15T09:07:30.759Z,7.26
2023-04-15T09:10:01.314Z,7.42
2023-04-15T09:12:32.376Z,7.41
2023-04-15T09:15:03.685Z,7.35
2023-04-15T09:17:35.680Z,7.37
2023-04-15T09:20:16.563Z,7.19
2023-04-15T09:22:49.282Z,7.00
2023-04-15T09:25:25.745Z,7.29
2023-04-15T09:27:58.616Z,7.39
2023-04-15T09:30:30.338Z,7.49
2023-04-15T09:33:11.802Z,7.27
2023-04-15T09:35:42.303Z,7.33
2023-04-15T09:38:13.541Z,7.46
2023-04-15T09:40:43.917Z,7.59
2023-04-15T09:43:14.463Z,7.56
2023-04-15T09:45:55.300Z,7.58
2023-04-15T09:48:31.918Z,7.58
2023-04-15T09:51:12.266Z,7.58
2023-04-15T09:53:42.627Z,7.43
2023-04-15T09:56:15.921Z,7.55
2023-04-15T09:58:57.568Z,7.60
2023-04-15T10:01:28.592Z,7.63
2023-04-15T10:04:00.610Z,7.60
2023-04-15T10:06:32.397Z,7.60
2023-04-15T10:09:03.399Z,7.62
2023-04-15T10:11:35.161Z,7.63
2023-04-15T10:14:08.872Z,7.61
2023-04-15T10:16:43.999Z,7.62
2023-04-15T10:19:34.596Z,7.62
2023-04-15T10:22:07.089Z,7.58
2023-04-15T10:24:38.180Z,7.57
2023-04-15T10:27:10.106Z,7.57
2023-04-15T10:29:40.442Z,7.53
2023-04-15T10:32:12.277Z,7.52
2023-04-15T10:34:43.338Z,7.51
2023-04-15T10:37:13.769Z,7.46
2023-04-15T10:39:45.270Z,7.49
2023-04-15T10:42:22.105Z,7.47
2023-04-15T10:44:52.727Z,7.39
2023-04-15T10:47:23.235Z,7.39
2023-04-15T10:50:02.444Z,7.39
2023-04-15T10:52:33.894Z,7.36
2023-04-15T10:55:07.960Z,7.29
2023-04-15T10:57:43.358Z,7.30
2023-04-15T11:00:18.181Z,7.28
2023-04-15T11:02:49.846Z,7.37
2023-04-15T11:05:21.695Z,7.03
2023-04-15T11:07:55.480Z,7.08
2023-04-15T11:10:34.370Z,7.08
2023-04-15T11:13:13.429Z,7.29
2023-04-15T11:15:48.708Z,7.12
2023-04-15T11:18:18.899Z,7.16
2023-04-15T11:20:55.743Z,7.29
2023-04-15T11:23:34.883Z,7.09
2023-04-15T11:26:11.019Z,7.06
2023-04-15T11:28:43.569Z,7.13
2023-04-15T11:31:15.278Z,7.15
2023-04-15T11:33:57.272Z,7.01
2023-04-15T11:36:29.723Z,7.01
2023-04-15T11:39:01.185Z,7.17
2023-04-15T11:41:31.608Z,7.15
2023-04-15T11:44:02.535Z,7.12
2023-04-15T11:46:33.286Z,7.27
2023-04-15T11:49:05.735Z,7.29
2023-04-15T11:51:37.122Z,7.27
2023-04-15T11:54:09.109Z,7.25
2023-04-15T11:56:38.415Z,7.21
2023-04-15T11:59:09.674Z,7.20
2023-04-15T12:01:48.137Z,7.10
2023-04-15T12:04:23.309Z,6.91
2023-04-15T12:06:56.699Z,6.70
2023-04-15T12:09:29.941Z,7.02
2023-04-15T12:12:00.467Z,6.79
2023-04-15T12:14:31.099Z,6.94
2023-04-15T12:17:02.282Z,7.01
2023-04-15T12:19:36.747Z,6.95
2023-04-15T12:22:08.285Z,6.74
2023-04-15T12:24:39.318Z,6.85
2023-04-15T12:27:10.554Z,6.86
2023-04-15T12:29:44.520Z,6.72
2023-04-15T12:32:15.808Z,6.73
2023-04-15T12:34:51.300Z,6.35
2023-04-15T12:37:20.764Z,6.63
2023-04-15T12:39:51.335Z,6.71
2023-04-15T12:42:21.302Z,6.90
2023-04-15T12:44:50.376Z,6.97
2023-04-15T12:47:19.367Z,6.98
2023-04-15T12:49:50.436Z,6.96
2023-04-15T12:52:28.232Z,6.97
2023-04-15T12:54:57.692Z,6.93
2023-04-15T12:57:26.642Z,6.88
2023-04-15T12:59:55.821Z,6.85
2023-04-15T13:02:26.443Z,6.82
2023-04-15T13:04:55.964Z,6.52
2023-04-15T13:07:25.183Z,6.68
2023-04-15T13:09:54.139Z,6.68
2023-04-15T13:12:23.172Z,6.60
2023-04-15T13:14:52.153Z,6.73
2023-04-15T13:17:22.771Z,6.88
2023-04-15T13:19:52.110Z,6.82
2023-04-15T13:22:21.277Z,6.83
2023-04-15T13:24:53.237Z,6.82
2023-04-15T13:27:22.472Z,6.77
2023-04-15T13:29:51.392Z,6.77
2023-04-15T13:32:20.618Z,6.79
2023-04-15T13:34:57.058Z,6.78
2023-04-15T13:37:29.831Z,6.80
2023-04-15T13:39:59.487Z,6.80
2023-04-15T13:42:30.885Z,6.86
2023-04-15T13:44:59.956Z,6.95
2023-04-15T13:47:29.369Z,6.97
2023-04-15T13:49:59.013Z,7.00
2023-04-15T13:52:28.289Z,7.00
2023-04-15T13:55:07.858Z,7.08
2023-04-15T13:57:46.905Z,7.10
2023-04-15T14:00:16.491Z,7.13
2023-04-15T14:02:45.689Z,7.18
2023-04-15T14:05:14.870Z,7.22
2023-04-15T14:07:43.809Z,7.22
2023-04-15T14:10:13.004Z,7.30
2023-04-15T14:12:42.925Z,7.35
2023-04-15T14:15:12.952Z,7.29
2023-04-15T14:17:43.331Z,7.39
2023-04-15T14:20:14.008Z,7.44
2023-04-15T14:22:44.644Z,7.46
2023-04-15T14:25:23.059Z,7.53
2023-04-15T14:27:59.718Z,7.63
2023-04-15T14:30:29.592Z,7.51
2023-04-15T14:32:58.795Z,7.58
2023-04-15T14:35:28.199Z,7.57
2023-04-15T14:37:57.806Z,7.45
2023-04-15T14:40:26.894Z,7.50
2023-04-15T14:42:55.938Z,7.72
2023-04-15T14:45:25.130Z,7.79
2023-04-15T14:47:54.468Z,7.81
2023-04-15T14:50:23.743Z,7.81
2023-04-15T14:52:54.901Z,7.95
2023-04-15T14:55:23.982Z,7.93
2023-04-15T14:57:53.220Z,8.04
2023-04-15T15:00:22.245Z,7.94
2023-04-15T15:02:51.506Z,8.23
2023-04-15T15:05:20.872Z,8.15
2023-04-15T15:07:50.207Z,8.29
2023-04-15T15:10:35.810Z,8.35
2023-04-15T15:13:13.474Z,8.40
2023-04-15T15:15:42.931Z,8.38
2023-04-15T15:18:12.403Z,8.47
2023-04-15T15:20:41.840Z,8.44
2023-04-15T15:23:11.100Z,8.35
2023-04-15T15:25:40.398Z,8.56
2023-04-15T15:28:11.961Z,8.58
2023-04-15T15:30:41.512Z,8.59
2023-04-15T15:33:16.156Z,8.52
2023-04-15T15:35:45.691Z,8.59
2023-04-15T15:38:14.782Z,8.53
2023-04-15T15:40:43.997Z,8.71
2023-04-15T15:43:13.352Z,8.70
2023-04-15T15:45:48.273Z,8.83
2023-04-15T15:48:17.327Z,8.81
2023-04-15T15:50:47.032Z,8.90
2023-04-15T15:53:21.578Z,8.92
2023-04-15T15:55:53.607Z,8.77
2023-04-15T15:58:23.366Z,8.86
2023-04-15T16:00:52.548Z,8.76
2023-04-15T16:03:21.758Z,8.85
2023-04-15T16:05:50.914Z,8.81
2023-04-15T16:08:20.928Z,8.66
2023-04-15T16:10:50.104Z,8.60
2023-04-15T16:13:19.255Z,8.72
2023-04-15T16:15:48.431Z,8.89
2023-04-15T16:18:18.210Z,8.88
2023-04-15T16:20:47.614Z,8.88
2023-04-15T16:23:18.178Z,8.89
2023-04-15T16:25:47.278Z,9.06
2023-04-15T16:28:25.526Z,8.87
2023-04-15T16:30:57.240Z,9.02
2023-04-15T16:33:26.631Z,8.93
2023-04-15T16:35:55.632Z,9.13
2023-04-15T16:38:24.694Z,9.12
2023-04-15T16:40:53.747Z,9.14
2023-04-15T16:43:22.767Z,9.30
2023-04-15T16:45:51.938Z,9.47
2023-04-15T16:48:22.049Z,9.54
2023-04-15T16:50:51.258Z,9.49
2023-04-15T16:53:29.628Z,9.61
2023-04-15T16:55:58.712Z,9.66
2023-04-15T16:58:29.608Z,9.73
2023-04-15T17:01:50.537Z,9.72
2023-04-15T17:04:19.961Z,9.78
2023-04-15T17:06:50.431Z,9.80
2023-04-15T17:09:19.535Z,9.80
2023-04-15T17:11:49.617Z,9.70
2023-04-15T17:14:18.726Z,9.73
2023-04-15T17:16:48.482Z,9.62
2023-04-15T17:19:17.624Z,9.79
2023-04-15T17:21:56.990Z,10.04
2023-04-15T17:24:26.255Z,9.96
2023-04-15T17:27:01.508Z,9.82
2023-04-15T17:29:35.398Z,10.00
2023-04-15T17:32:07.824Z,10.22
2023-04-15T17:34:56.679Z,10.34
2023-04-15T17:37:45.490Z,10.39
2023-04-15T17:40:34.455Z,10.46
2023-04-15T17:43:23.426Z,10.61
2023-04-15T17:46:17.020Z,10.44
2023-04-15T17:49:09.376Z,10.55
2023-04-15T17:51:59.018Z,10.72
2023-04-15T17:54:47.985Z,10.81
2023-04-15T17:57:37.206Z,10.61
2023-04-15T18:00:26.912Z,10.83
2023-04-15T18:03:20.125Z,10.87
2023-04-15T18:06:09.069Z,10.62
2023-04-15T18:08:57.928Z,10.75
2023-04-15T18:11:49.256Z,10.78
2023-04-15T18:14:38.548Z,10.73
2023-04-15T18:17:27.466Z,10.39
2023-04-15T18:20:58.175Z,10.38
2023-04-15T18:23:33.628Z,10.72
2023-04-15T18:26:02.776Z,10.83
2023-04-15T18:28:32.384Z,10.58
2023-04-15T18:31:02.364Z,10.93
2023-04-15T18:33:31.691Z,10.83
2023-04-15T18:36:00.816Z,11.04
2023-04-15T18:38:30.103Z,11.11
2023-04-15T18:40:59.687Z,11.12
2023-04-15T18:43:29.520Z,11.22
2023-04-15T18:45:58.991Z,11.26
2023-04-15T18:48:28.351Z,11.18
2023-04-15T18:50:59.216Z,11.40
2023-04-15T18:53:28.921Z,11.49
2023-04-15T18:56:01.840Z,11.30
2023-04-15T18:59:09.680Z,11.20
2023-04-15T19:01:35.618Z,11.10
2023-04-15T19:04:04.928Z,11.10
2023-04-15T19:06:34.503Z,11.44
2023-04-15T19:09:03.923Z,11.34
2023-04-15T19:11:33.314Z,11.37
2023-04-15T19:14:02.621Z,11.38
2023-04-15T19:16:31.724Z,11.19
2023-04-15T19:19:00.728Z,11.15
2023-04-15T19:21:31.606Z,11.32
2023-04-15T19:24:01.891Z,11.51
2023-04-15T19:26:33.792Z,11.75
2023-04-15T19:29:03.116Z,11.65
2023-04-15T19:31:32.452Z,11.49
2023-04-15T19:34:01.697Z,11.29
2023-04-15T19:36:30.956Z,11.26
2023-04-15T19:39:03.046Z,11.21
2023-04-15T19:41:32.389Z,11.61
2023-04-15T19:44:01.913Z,11.85
2023-04-15T19:46:31.482Z,11.78
2023-04-15T19:49:02.185Z,11.65
2023-04-15T19:51:31.611Z,11.74
2023-04-15T19:54:00.783Z,11.63
2023-04-15T19:56:31.744Z,11.88
2023-04-15T19:59:03.294Z,11.46
2023-04-15T20:01:33.300Z,11.69
2023-04-15T20:04:04.912Z,11.94
2023-04-15T20:06:34.414Z,11.89
2023-04-15T20:09:04.041Z,11.97
2023-04-15T20:12:06.598Z,11.43
2023-04-15T20:14:24.783Z,11.69
2023-04-15T20:16:53.857Z,11.73
2023-04-15T20:19:22.888Z,11.50
2023-04-15T20:21:52.718Z,11.45
2023-04-15T20:24:22.453Z,11.59
2023-04-15T20:26:51.557Z,11.61
2023-04-15T20:29:21.529Z,11.62
2023-04-15T20:31:50.680Z,11.44
2023-04-15T20:34:19.923Z,11.28
2023-04-15T20:36:49.096Z,11.38
2023-04-15T20:39:19.301Z,11.18
2023-04-15T20:41:50.265Z,11.10
2023-04-15T20:44:19.632Z,11.24
2023-04-15T20:46:48.780Z,11.24
2023-04-15T20:49:17.890Z,11.20
2023-04-15T20:51:47.020Z,11.27
2023-04-15T20:54:19.401Z,11.28
2023-04-15T20:56:51.207Z,11.30
2023-04-15T20:59:20.932Z,11.32
2023-04-15T21:01:50.614Z,11.16
2023-04-15T21:04:22.939Z,11.25
2023-04-15T21:06:53.065Z,11.04
2023-04-15T21:09:22.177Z,11.09
2023-04-15T21:14:24.043Z,11.02
2023-04-15T21:16:53.016Z,11.24
2023-04-15T21:19:22.102Z,11.15
2023-04-15T21:21:51.081Z,11.27
2023-04-15T21:24:20.363Z,11.24
2023-04-15T21:26:49.632Z,11.18
2023-04-15T21:29:19.119Z,11.25
2023-04-15T21:31:48.293Z,11.30
2023-04-15T21:34:17.844Z,11.32
2023-04-15T21:36:47.196Z,11.21
2023-04-15T21:39:16.355Z,11.05
2023-04-15T21:41:48.189Z,11.16
2023-04-15T21:44:19.320Z,11.20
2023-04-15T21:46:48.494Z,11.33
2023-04-15T21:49:20.623Z,11.41
2023-04-15T21:51:50.100Z,11.12
2023-04-15T21:54:19.386Z,11.21
2023-04-15T21:56:50.509Z,11.24
2023-04-15T21:59:22.481Z,11.16
2023-04-15T22:01:52.052Z,11.05
2023-04-15T22:04:21.235Z,11.13
2023-04-15T22:06:50.642Z,11.03
2023-04-15T22:09:22.629Z,11.14
2023-04-15T22:11:51.655Z,10.92
2023-04-15T22:14:20.584Z,11.00
2023-04-15T22:16:50.105Z,10.96
2023-04-15T22:19:20.583Z,10.83
2023-04-15T22:21:51.950Z,10.72
2023-04-15T22:24:32.973Z,10.66
2023-04-15T22:27:09.725Z,10.76
2023-04-15T22:29:38.754Z,10.53
2023-04-15T22:32:08.664Z,10.60
2023-04-15T22:34:41.293Z,10.72
2023-04-15T22:37:10.563Z,10.64
2023-04-15T22:39:39.627Z,10.62
2023-04-15T22:42:11.331Z,10.42
2023-04-15T22:44:40.477Z,10.65
2023-04-15T22:47:27.251Z,10.47
2023-04-15T22:49:56.649Z,10.72
2023-04-15T22:52:30.701Z,10.59
2023-04-15T22:55:00.776Z,10.56
2023-04-15T22:57:30.001Z,10.34
2023-04-15T22:59:59.095Z,10.60
2023-04-15T23:02:31.797Z,10.56
2023-04-15T23:05:26.173Z,10.31
2023-04-15T23:07:55.364Z,10.43
2023-04-15T23:10:24.450Z,10.56
2023-04-15T23:12:53.631Z,10.53
2023-04-15T23:15:22.831Z,10.32
2023-04-15T23:17:52.175Z,10.31
2023-04-15T23:20:22.275Z,10.39
2023-04-15T23:22:51.312Z,10.39
2023-04-15T23:25:23.031Z,10.38
2023-04-15T23:27:52.128Z,10.51
2023-04-15T23:30:23.875Z,10.51
2023-04-15T23:32:52.960Z,10.55
2023-04-15T23:35:22.471Z,10.66
2023-04-15T23:37:51.675Z,10.77
2023-04-15T23:40:23.619Z,10.70
2023-04-15T23:42:52.930Z,10.58
2023-04-15T23:45:22.581Z,10.70
2023-04-15T23:47:51.538Z,10.59
2023-04-15T23:50:23.380Z,10.64
2023-04-15T23:52:52.452Z,10.73
2023-04-15T23:55:22.517Z,10.64
2023-04-15T23:57:51.595Z,10.68
